Emine Anne — TCBX9 — position and weather

sailwx.info

Track history (hours):
 
Tides and Currents Weather Stations Pressure Air Temp Water Temp Dewpoint Dewpoint Depression Visibility Wind Speed Wind Dir Waves Ship Positions

Emine Anne

Last reported at 2014-Nov-24 14:27 UTC. Time now 2014-Nov-24 21:36 UTC.
Position N 40°56' E 028°53'.

Length 69 m; draft 2.4 m.

Type: Ship. MMSI: 271002305.

Date/timePositionNaut miles runAvg speedWind from/ knotsBaromVisibWave heightAir tempDewpointWater temp
2014-Nov-24 14:27N 40°56' E 028°53'5 3.9
2014-Nov-24 13:06N 40°54' E 028°59'2 3.9
2014-Nov-24 12:33N 40°52' E 028°59'7 0.6
2014-Nov-24 00:30N 40°59' E 028°55'  
2014-Nov-19 13:33N 46°38' E 031°54'7 7.5
2014-Nov-19 12:34N 46°45' E 031°53'7 6.7
2014-Nov-19 11:34N 46°51' E 031°58'1 0.6
2014-Nov-19 10:31N 46°51' E 031°59'0 0.0
2014-Nov-19 09:32N 46°51' E 031°59'0 0.0
2014-Nov-19 08:33N 46°51' E 031°59'0 0.0
2014-Nov-19 07:27N 46°51' E 031°59'0 0.0
2014-Nov-19 06:32N 46°51' E 031°59'0 0.0
2014-Nov-19 05:29N 46°51' E 031°59'0 0.0
2014-Nov-19 04:31N 46°51' E 031°59'0 0.0
2014-Nov-19 03:28N 46°51' E 031°59'0 0.0
2014-Nov-19 02:31N 46°51' E 031°59'0 0.0
2014-Nov-19 01:30N 46°51' E 031°59'0 0.0
2014-Nov-19 00:33N 46°51' E 031°59'0 0.0
2014-Nov-18 23:32N 46°51' E 031°59'0 0.0
2014-Nov-18 22:32N 46°51' E 031°59'0 0.0
2014-Nov-18 21:32N 46°51' E 031°59'0 0.0
2014-Nov-18 20:32N 46°51' E 031°59'0 0.0
2014-Nov-18 14:05N 46°51' E 031°59'0 0.0
2014-Nov-18 13:32N 46°51' E 031°59'0 0.0
2014-Nov-18 12:31N 46°51' E 031°59'0 0.0
2014-Nov-18 11:31N 46°51' E 031°59'2 1.6
2014-Nov-18 10:33N 46°51' E 031°56'6 6.3
2014-Nov-18 09:34N 46°44' E 031°55'8 7.7
2014-Nov-18 08:33N 46°37' E 031°52'  
Track history (hours):
 
Tides and Currents Weather Stations Pressure Air Temp Water Temp Dewpoint Dewpoint Depression Visibility Wind Speed Wind Dir Waves Ship Positions

Emine Anne

Last reported at 2014-Nov-24 14:27 UTC. Time now 2014-Nov-24 21:36 UTC.
Position N 40°56' E 028°53'.

Length 69 m; draft 2.4 m.

Type: Ship. MMSI: 271002305.

Date/timePositionNaut miles runAvg speedWind from/ knotsBaromVisibWave heightAir tempDewpointWater temp
2014-Nov-24 14:27N 40°56' E 028°53'5 3.9
2014-Nov-24 13:06N 40°54' E 028°59'2 3.9
2014-Nov-24 12:33N 40°52' E 028°59'7 0.6
2014-Nov-24 00:30N 40°59' E 028°55'  
2014-Nov-19 13:33N 46°38' E 031°54'7 7.5
2014-Nov-19 12:34N 46°45' E 031°53'7 6.7
2014-Nov-19 11:34N 46°51' E 031°58'1 0.6
2014-Nov-19 10:31N 46°51' E 031°59'0 0.0
2014-Nov-19 09:32N 46°51' E 031°59'0 0.0
2014-Nov-19 08:33N 46°51' E 031°59'0 0.0
2014-Nov-19 07:27N 46°51' E 031°59'0 0.0
2014-Nov-19 06:32N 46°51' E 031°59'0 0.0
2014-Nov-19 05:29N 46°51' E 031°59'0 0.0
2014-Nov-19 04:31N 46°51' E 031°59'0 0.0
2014-Nov-19 03:28N 46°51' E 031°59'0 0.0
2014-Nov-19 02:31N 46°51' E 031°59'0 0.0
2014-Nov-19 01:30N 46°51' E 031°59'0 0.0
2014-Nov-19 00:33N 46°51' E 031°59'0 0.0
2014-Nov-18 23:32N 46°51' E 031°59'0 0.0
2014-Nov-18 22:32N 46°51' E 031°59'0 0.0
2014-Nov-18 21:32N 46°51' E 031°59'0 0.0
2014-Nov-18 20:32N 46°51' E 031°59'0 0.0
2014-Nov-18 14:05N 46°51' E 031°59'0 0.0
2014-Nov-18 13:32N 46°51' E 031°59'0 0.0
2014-Nov-18 12:31N 46°51' E 031°59'0 0.0
2014-Nov-18 11:31N 46°51' E 031°59'2 1.6
2014-Nov-18 10:33N 46°51' E 031°56'6 6.3
2014-Nov-18 09:34N 46°44' E 031°55'8 7.7
2014-Nov-18 08:33N 46°37' E 031°52'  

Dump ship's entire track history